Main page
METAR-TAF:

METAR-TAF

Airports :

Melilla Airport

Melilla, Spain

latitude: 35-17N, longitude: 002-57W, elevation: 47 m

Current weather observation

The report was made 36 minutes ago, at 11:00 UTC
Wind 10 kt from the South/Southeast, varying between East/Southeast and South/Southwest
Temperature 16°C
Humidity 68%
Pressure 1009 hPa
Visibility 10 km or more
no clouds below 1500 m and no cumulonimbus

METAR: GEML 031100Z 16010KT 120V200 CAVOK 16/10 Q1009

Time: 12:36 (11:36 UTC)

Forecast

The report was made 6 hours and 36 minutes ago, at 05:00 UTC
Forecast valid from 03 at 06 UTC to 04 at 06 UTC
Wind 5 kt from the Southeast
Visibility 10 km or more
Few clouds at a height of 2500 ft

TAF: GEML 030500Z 0306/0406 13005KT 9999 FEW025 TX19/0313Z TN10/0306Z

Weather observations and forecasts of more than 4000 airports (METAR and TAF reports).

The available stations are represented by yellow and red dots on the map.

Hover mouse over dot to see the name of the station.

Then click to see weather observations and forecasts.

To change the map : click on the green buttons with a black cross to zoom in, on the green button with a dash to zoom out, or on the green arrows for adjacent maps.


METAR-TAF: